Погода Витынена неделю

Подляское воеводство, Польша

18 - 24 июля
  • 18июля
    Сегодня
    +13°
    +25°
    Небольшая облачность
    ВремяПогодаТемператураВлажностьДавлениеВетер, м/сВероятность осадков
    02:00Облачно с прояснениями+18°C79 %754 мм1.6 м/с2 %
    05:00Ясно и безоблачно+16°C89 %754 мм2.1 м/с8 %
    08:00Практически безоблачно+21°C70 %754 мм3.1 м/с13 %
    11:00Практически безоблачно+24°C51 %754 мм4.1 м/с18 %
    14:00Небольшая облачность+25°C44 %754 мм4.8 м/с20 %
    17:00Небольшая облачность+25°C46 %754 мм5.0 м/с8 %
    20:00Практически безоблачно+22°C55 %755 мм3.4 м/с2 %
    23:00Практически безоблачно+17°C74 %755 мм3.0 м/с2 %
  • 19июля
    Пятница
    +12°
    +25°
    Небольшая облачность
    ВремяПогодаТемператураВлажностьДавлениеВетер, м/сВероятность осадков
    02:00Облачно с прояснениями+15°C86 %755 мм2.7 м/с2 %
    05:00Ясно и безоблачно+13°C93 %755 мм2.3 м/с2 %
    08:00Небольшая облачность+18°C68 %755 мм3.4 м/с2 %
    11:00Практически безоблачно+22°C50 %755 мм3.4 м/с2 %
    14:00Небольшая облачность+24°C44 %754 мм4.2 м/с2 %
    17:00Ясно и безоблачно+24°C43 %753 мм4.4 м/с2 %
    20:00Ясно и безоблачно+22°C54 %753 мм3.7 м/с2 %
    23:00Ясно и безоблачно+16°C73 %752 мм1.9 м/с2 %
  • 20июля
    Суббота
    +13°
    +26°
    Практически безоблачно
    ВремяПогодаТемператураВлажностьДавлениеВетер, м/сВероятность осадков
    02:00Ясно и безоблачно+14°C89 %752 мм2.0 м/с2 %
    05:00Ясно и безоблачно+12°C93 %751 мм1.9 м/с2 %
    08:00Ясно и безоблачно+17°C72 %751 мм2.0 м/с2 %
    11:00Ясно и безоблачно+22°C54 %751 мм2.4 м/с2 %
    14:00Практически безоблачно+25°C43 %750 мм2.9 м/с2 %
    17:00Облачно с прояснениями+25°C39 %749 мм2.7 м/с2 %
    20:00Ясно и безоблачно+22°C57 %748 мм1.7 м/с2 %
    23:00Ясно и безоблачно+18°C69 %748 мм2.5 м/с2 %
  • 21июля
    Воскресенье
    +14°
    +27°
    Ясно и безоблачно
    ВремяПогодаТемператураВлажностьДавлениеВетер, м/сВероятность осадков
    02:00Ясно и безоблачно+15°C88 %748 мм1.8 м/с2 %
    05:00Ясно и безоблачно+14°C94 %747 мм1.7 м/с2 %
    08:00Ясно и безоблачно+20°C67 %747 мм0.9 м/с2 %
    11:00Ясно и безоблачно+24°C43 %747 мм1.4 м/с2 %
    14:00Ясно и безоблачно+26°C34 %746 мм1.7 м/с2 %
    17:00Ясно и безоблачно+27°C33 %746 мм2.0 м/с3 %
    20:00Ясно и безоблачно+24°C46 %746 мм1.7 м/с2 %
    23:00Ясно и безоблачно+19°C57 %746 мм2.4 м/с2 %
  • 22июля
    Понедельник
    +15°
    +29°
    Облачно с прояснениями
    ВремяПогодаТемператураВлажностьДавлениеВетер, м/сВероятность осадков
    02:00Ясно и безоблачно+17°C71 %746 мм1.8 м/с2 %
    05:00Ясно и безоблачно+15°C79 %746 мм1.9 м/с2 %
    08:00Ясно и безоблачно+21°C59 %746 мм1.4 м/с2 %
    11:00Ясно и безоблачно+27°C39 %746 мм0.3 м/с4 %
    14:00Облачно с прояснениями+28°C30 %745 мм2.1 м/с5 %
    17:00Облачно с прояснениями+26°C33 %745 мм2.5 м/с17 %
    20:00Облачно с прояснениями+25°C49 %746 мм1.2 м/с22 %
    23:00Пасмурно, сплошная облачность+20°C54 %746 мм3.5 м/с27 %
Мы используем cookies
Соглашаюсь